Observation data for Muleshoe on 03/01/2021      Previous  Date  Next       Current Mesonet Observations  Soil Data  Daily Summary Page  Observations in Plain Language
KMUS 010600Z 03011G16KT 02/M11 A3017 RMK A01 T00181108  RH  038%=      5-min Rain = 0
KMUS 010605Z 04011KT 02/M11 A3017 RMK A01 T00191108  RH  038%=      5-min Rain = 0
KMUS 010610Z 03011G16KT 02/M11 A3016 RMK A01 T00201108  RH  038%=      5-min Rain = 0
KMUS 010615Z 04012KT 02/M11 A3017 RMK A01 T00201108  RH  038%=      5-min Rain = 0
KMUS 010620Z 04011KT 02/M11 A3016 RMK A01 T00201107  RH  038%=      5-min Rain = 0
KMUS 010625Z 04012KT 02/M11 A3017 RMK A01 T00191107  RH  038%=      5-min Rain = 0
KMUS 010630Z 03012KT 02/M11 A3016 RMK A01 T00191106  RH  039%=      5-min Rain = 0
KMUS 010635Z 03012KT 02/M11 A3016 RMK A01 T00181106  RH  039%=      5-min Rain = 0
KMUS 010640Z 03011G16KT 02/M11 A3016 RMK A01 T00171106  RH  039%=      5-min Rain = 0
KMUS 010645Z 03011G17KT 02/M11 A3017 RMK A01 T00171106  RH  039%=      5-min Rain = 0
KMUS 010650Z 03013KT 02/M11 A3017 RMK A01 T00181107  RH  039%=      5-min Rain = 0
KMUS 010655Z 03012KT 02/M11 A3017 RMK A01 T00201107  RH  038%=      5-min Rain = 0
KMUS 010700Z 03011KT 02/M11 A3017 RMK A01 T00211106  RH  038%=      5-min Rain = 0
KMUS 010705Z 03011G16KT 02/M11 A3017 RMK A01 T00211106  RH  038%=      5-min Rain = 0
KMUS 010710Z 04011G16KT 02/M11 A3018 RMK A01 T00221106  RH  038%=      5-min Rain = 0
KMUS 010715Z 05010KT 02/M11 A3019 RMK A01 T00231106  RH  038%=      5-min Rain = 0
KMUS 010720Z 05010KT 02/M11 A3019 RMK A01 T00231105  RH  038%=      5-min Rain = 0
KMUS 010725Z 05010KT 02/M10 A3019 RMK A01 T00231103  RH  039%=      5-min Rain = 0
KMUS 010730Z 05010KT 02/M10 A3019 RMK A01 T00221103  RH  039%=      5-min Rain = 0
KMUS 010735Z 05010KT 02/M10 A302 RMK A01 T00221102  RH  039%=      5-min Rain = 0
KMUS 010740Z 06009KT 02/M10 A302 RMK A01 T00221100  RH  040%=      5-min Rain = 0
KMUS 010745Z 06009KT 02/M10 A302 RMK A01 T00211100  RH  040%=      5-min Rain = 0
KMUS 010750Z 06009KT 02/M10 A3021 RMK A01 T00201100  RH  041%=      5-min Rain = 0
KMUS 010755Z 06009KT 02/M10 A3021 RMK A01 T00191099  RH  041%=      5-min Rain = 0
KMUS 010800Z 06009KT 02/M10 A302 RMK A01 T00171097  RH  042%=      5-min Rain = 0
KMUS 010805Z 05009KT 02/M10 A302 RMK A01 T00171097  RH  042%=      5-min Rain = 0
KMUS 010810Z 05008KT 02/M10 A3021 RMK A01 T00181097  RH  042%=      5-min Rain = 0
KMUS 010815Z 05008KT 02/M10 A3021 RMK A01 T00181097  RH  042%=      5-min Rain = 0
KMUS 010820Z 04009KT 02/M10 A3021 RMK A01 T00191097  RH  042%=      5-min Rain = 0
KMUS 010825Z 04010KT 02/M10 A302 RMK A01 T00191097  RH  042%=      5-min Rain = 0
KMUS 010830Z 04009KT 02/M10 A302 RMK A01 T00191098  RH  041%=      5-min Rain = 0
KMUS 010835Z 04009KT 02/M10 A302 RMK A01 T00201098  RH  041%=      5-min Rain = 0
KMUS 010840Z 04008KT 02/M10 A302 RMK A01 T00201098  RH  041%=      5-min Rain = 0
KMUS 010845Z 03007KT 02/M10 A302 RMK A01 T00191098  RH  041%=      5-min Rain = 0
KMUS 010850Z 03008KT 02/M10 A3019 RMK A01 T00191098  RH  042%=      5-min Rain = 0
KMUS 010855Z 04009KT 02/M10 A3019 RMK A01 T00181098  RH  042%=      5-min Rain = 0
KMUS 010900Z 04008KT 02/M10 A3019 RMK A01 T00181097  RH  042%=      5-min Rain = 0
KMUS 010905Z 04009G14KT 02/M10 A3018 RMK A01 T00171097  RH  042%=      5-min Rain = 0
KMUS 010910Z 02009KT 02/M10 A3017 RMK A01 T00181097  RH  042%=      5-min Rain = 0
KMUS 010915Z 02010KT 02/M10 A3017 RMK A01 T00171096  RH  043%=      5-min Rain = 0
KMUS 010920Z 02009KT 02/M10 A3017 RMK A01 T00161096  RH  043%=      5-min Rain = 0
KMUS 010925Z 03009KT 02/M10 A3017 RMK A01 T00171097  RH  043%=      5-min Rain = 0
KMUS 010930Z 03009KT 02/M10 A3018 RMK A01 T00181096  RH  042%=      5-min Rain = 0
KMUS 010935Z 02009KT 02/M10 A3018 RMK A01 T00181097  RH  042%=      5-min Rain = 0
KMUS 010940Z 03008KT 02/M10 A3018 RMK A01 T00181097  RH  042%=      5-min Rain = 0
KMUS 010945Z 03007KT 02/M10 A3019 RMK A01 T00191098  RH  042%=      5-min Rain = 0
KMUS 010950Z 05005KT 02/M10 A302 RMK A01 T00191098  RH  041%=      5-min Rain = 0
KMUS 010955Z 07005KT 02/M10 A3021 RMK A01 T00191097  RH  042%=      5-min Rain = 0
KMUS 011000Z 07005KT 02/M10 A3021 RMK A01 T00181095  RH  043%=      5-min Rain = 0
KMUS 011005Z 08006KT 02/M09 A3022 RMK A01 T00161093  RH  044%=      5-min Rain = 0
KMUS 011010Z 08005KT 02/M09 A3022 RMK A01 T00151092  RH  045%=      5-min Rain = 0
KMUS 011015Z 07005KT 02/M09 A3022 RMK A01 T00151091  RH  045%=      5-min Rain = 0
KMUS 011020Z 06005KT 01/M09 A3022 RMK A01 T00141091  RH  045%=      5-min Rain = 0
KMUS 011025Z 08006KT 01/M09 A3023 RMK A01 T00141090  RH  046%=      5-min Rain = 0
KMUS 011030Z 07006KT 01/M09 A3023 RMK A01 T00141091  RH  045%=      5-min Rain = 0
KMUS 011035Z 06005KT 01/M09 A3023 RMK A01 T00141091  RH  045%=      5-min Rain = 0
KMUS 011040Z 07005KT 02/M09 A3023 RMK A01 T00151091  RH  045%=      5-min Rain = 0
KMUS 011045Z 07005KT 01/M09 A3024 RMK A01 T00141091  RH  045%=      5-min Rain = 0
KMUS 011050Z 05003KT 01/M09 A3024 RMK A01 T00141090  RH  046%=      5-min Rain = 0
KMUS 011055Z 03003KT 01/M09 A3024 RMK A01 T00131090  RH  046%=      5-min Rain = 0
KMUS 011100Z 02003KT 01/M09 A3024 RMK A01 T00121089  RH  047%=      5-min Rain = 0
KMUS 011105Z 03002KT 01/M09 A3025 RMK A01 T00121089  RH  047%=      5-min Rain = 0
KMUS 011110Z 04004KT 01/M09 A3025 RMK A01 T00121089  RH  047%=      5-min Rain = 0
KMUS 011115Z 06004KT 01/M09 A3024 RMK A01 T00131089  RH  047%=      5-min Rain = 0
KMUS 011120Z 05004KT 01/M09 A3024 RMK A01 T00131088  RH  047%=      5-min Rain = 0
KMUS 011125Z 05005KT 01/M09 A3024 RMK A01 T00131088  RH  047%=      5-min Rain = 0
KMUS 011130Z 04004KT 01/M09 A3024 RMK A01 T00121088  RH  047%=      5-min Rain = 0
KMUS 011135Z 03003KT 01/M09 A3025 RMK A01 T00121088  RH  047%=      5-min Rain = 0
KMUS 011140Z 02004KT 01/M09 A3025 RMK A01 T00121088  RH  047%=      5-min Rain = 0
KMUS 011145Z 00005KT 01/M09 A3025 RMK A01 T00121087  RH  047%=      5-min Rain = 0
KMUS 011150Z 35004KT 01/M09 A3025 RMK A01 T00111087  RH  048%=      5-min Rain = 0
KMUS 011155Z 35004KT 01/M09 A3025 RMK A01 T00101086  RH  049%=      5-min Rain = 0
KMUS 011200Z 36005KT 01/M09 A3025 RMK A01 T00081086  RH  049%=      5-min Rain = 0
KMUS 011205Z 35003KT 01/M09 A3025 RMK A01 T00081086  RH  050%=      5-min Rain = 0
KMUS 011210Z 32003KT 00/M08 A3025 RMK A01 T00041084  RH  052%=      5-min Rain = 0
KMUS 011215Z 33004KT 00/08 A3026 RMK A01 T00000-83  RH  053%=      5-min Rain = 0
KMUS 011220Z 32004KT 00/08 A3026 RMK A01 T00-00-83  RH  054%=      5-min Rain = 0
KMUS 011225Z 33002KT M00/M08 A3027 RMK A01 T10011084  RH  053%=      5-min Rain = 0
KMUS 011230Z 33002KT M00/M09 A3027 RMK A01 T10011085  RH  053%=      5-min Rain = 0
KMUS 011235Z 30003KT M00/M08 A3028 RMK A01 T10011084  RH  053%=      5-min Rain = 0
KMUS 011240Z 31003KT M00/M09 A3028 RMK A01 T10021086  RH  053%=      5-min Rain = 0
KMUS 011245Z 32003KT M00/M09 A3028 RMK A01 T10021086  RH  053%=      5-min Rain = 0
KMUS 011250Z 33004KT M00/M09 A3028 RMK A01 T10021087  RH  053%=      5-min Rain = 0
KMUS 011255Z 33005KT M00/M09 A3029 RMK A01 T10031087  RH  053%=      5-min Rain = 0
KMUS 011300Z 33006KT M00/M09 A3029 RMK A01 T10031087  RH  053%=      5-min Rain = 0
KMUS 011305Z 33005KT M00/M09 A3029 RMK A01 T10031087  RH  053%=      5-min Rain = 0
KMUS 011310Z 33004KT M00/M09 A303 RMK A01 T10031088  RH  053%=      5-min Rain = 0
KMUS 011315Z 33003KT M00/M09 A303 RMK A01 T10031088  RH  053%=      5-min Rain = 0
KMUS 011320Z 34003KT M00/M09 A303 RMK A01 T10031087  RH  053%=      5-min Rain = 0
KMUS 011325Z 36003KT M00/M09 A303 RMK A01 T10031086  RH  053%=      5-min Rain = 0
KMUS 011330Z 36004KT M00/M09 A303 RMK A01 T10021088  RH  052%=      5-min Rain = 0
KMUS 011335Z 36004KT M00/M09 A3031 RMK A01 T10011088  RH  052%=      5-min Rain = 0
KMUS 011340Z 36005KT 00/09 A3031 RMK A01 T00-00-88  RH  051%=      5-min Rain = 0
KMUS 011345Z 00006KT 00/09 A3031 RMK A01 T00000-89  RH  051%=      5-min Rain = 0
KMUS 011350Z 36006KT 00/M09 A3031 RMK A01 T00011089  RH  051%=      5-min Rain = 0
KMUS 011355Z 00007KT 00/M09 A3031 RMK A01 T00021089  RH  050%=      5-min Rain = 0
KMUS 011400Z 36006KT 00/M09 A3032 RMK A01 T00031089  RH  050%=      5-min Rain = 0
KMUS 011405Z 00006KT 00/M09 A3032 RMK A01 T00031089  RH  050%=      5-min Rain = 0
KMUS 011410Z 36007KT 00/M09 A3032 RMK A01 T00041088  RH  050%=      5-min Rain = 0
KMUS 011415Z 35007KT 00/M09 A3033 RMK A01 T00041088  RH  050%=      5-min Rain = 0
KMUS 011420Z 36008KT 00/M09 A3033 RMK A01 T00041087  RH  050%=      5-min Rain = 0
KMUS 011425Z 36007KT 00/M09 A3033 RMK A01 T00041086  RH  051%=      5-min Rain = 0
KMUS 011430Z 00006KT 01/M09 A3033 RMK A01 T00061085  RH  051%=      5-min Rain = 0
KMUS 011435Z 01006KT 01/M09 A3033 RMK A01 T00071085  RH  050%=      5-min Rain = 0
KMUS 011440Z 02006KT 01/M09 A3034 RMK A01 T00091085  RH  049%=      5-min Rain = 0
KMUS 011445Z 01007KT 01/M09 A3034 RMK A01 T00111085  RH  049%=      5-min Rain = 0
KMUS 011450Z 00009KT 01/M08 A3035 RMK A01 T00131084  RH  048%=      5-min Rain = 0
KMUS 011455Z 01009KT 01/M08 A3035 RMK A01 T00141083  RH  048%=      5-min Rain = 0
KMUS 011500Z 01009KT 02/M08 A3035 RMK A01 T00161083  RH  048%=      5-min Rain = 0
KMUS 011505Z 01010KT 02/M08 A3035 RMK A01 T00171084  RH  047%=      5-min Rain = 0
KMUS 011510Z 36011KT 02/M08 A3035 RMK A01 T00191084  RH  046%=      5-min Rain = 0
KMUS 011515Z 36010KT 02/M08 A3035 RMK A01 T00231083  RH  045%=      5-min Rain = 0
KMUS 011520Z 00011KT 03/M08 A3036 RMK A01 T00271084  RH  044%=      5-min Rain = 0
KMUS 011525Z 01011KT 03/M09 A3036 RMK A01 T00301086  RH  042%=      5-min Rain = 0
KMUS 011530Z 02011KT 03/M09 A3036 RMK A01 T00341088  RH  040%=      5-min Rain = 0
KMUS 011535Z 03010KT 04/M09 A3036 RMK A01 T00351090  RH  039%=      5-min Rain = 0
KMUS 011540Z 02010KT 04/M10 A3036 RMK A01 T00371095  RH  037%=      5-min Rain = 0
KMUS 011545Z 03011KT 04/M10 A3037 RMK A01 T00361096  RH  037%=      5-min Rain = 0
KMUS 011550Z 03010KT 04/M10 A3037 RMK A01 T00371096  RH  037%=      5-min Rain = 0
KMUS 011555Z 03009KT 04/M10 A3037 RMK A01 T00371097  RH  037%=      5-min Rain = 0
KMUS 011600Z 03008KT 04/M09 A3037 RMK A01 T00391094  RH  037%=      5-min Rain = 0
KMUS 011605Z 03009G14KT 04/M10 A3037 RMK A01 T00411098  RH  035%=      5-min Rain = 0
KMUS 011610Z 03009KT 04/M09 A3037 RMK A01 T00431093  RH  036%=      5-min Rain = 0
KMUS 011615Z 04008KT 05/M10 A3037 RMK A01 T00481096  RH  034%=      5-min Rain = 0
KMUS 011620Z 04008KT 05/M10 A3038 RMK A01 T00491097  RH  034%=      5-min Rain = 0
KMUS 011625Z 02010KT 05/M10 A3038 RMK A01 T00501099  RH  033%=      5-min Rain = 0
KMUS 011630Z 04009KT 05/M10 A3038 RMK A01 T00531101  RH  032%=      5-min Rain = 0
KMUS 011635Z 04008KT 06/M10 A3038 RMK A01 T00571101  RH  031%=      5-min Rain = 0
KMUS 011640Z 05007KT 06/M10 A3038 RMK A01 T00591101  RH  030%=      5-min Rain = 0
KMUS 011645Z 04009KT 06/M10 A3038 RMK A01 T00601101  RH  030%=      5-min Rain = 0
KMUS 011650Z 05009KT 06/M10 A3039 RMK A01 T00611103  RH  030%=      5-min Rain = 0
KMUS 011655Z 05008G14KT 06/M10 A3039 RMK A01 T00601103  RH  030%=      5-min Rain = 0
KMUS 011700Z 05008G13KT 06/M10 A3039 RMK A01 T00601104  RH  030%=      5-min Rain = 0
KMUS 011705Z 04007G12KT 06/M10 A3039 RMK A01 T00621104  RH  029%=      5-min Rain = 0
KMUS 011710Z 03007KT 07/M10 A3039 RMK A01 T00651103  RH  029%=      5-min Rain = 0
KMUS 011715Z 04008KT 07/M10 A3039 RMK A01 T00671104  RH  028%=      5-min Rain = 0
KMUS 011720Z 04008KT 07/M11 A3039 RMK A01 T00681105  RH  028%=      5-min Rain = 0
KMUS 011725Z 05006KT 07/M11 A304 RMK A01 T00671106  RH  028%=      5-min Rain = 0
KMUS 011730Z 04009KT 07/M11 A304 RMK A01 T00691107  RH  027%=      5-min Rain = 0
KMUS 011735Z 04008G13KT 07/M11 A304 RMK A01 T00681109  RH  027%=      5-min Rain = 0
KMUS 011740Z 04007KT 07/M11 A304 RMK A01 T00711111  RH  026%=      5-min Rain = 0
KMUS 011745Z 05008G13KT 08/M11 A304 RMK A01 T00771113  RH  024%=      5-min Rain = 0
KMUS 011750Z 06011KT 08/M12 A304 RMK A01 T00771119  RH  023%=      5-min Rain = 0
KMUS 011755Z 04008G13KT 08/M12 A304 RMK A01 T00761116  RH  024%=      5-min Rain = 0
KMUS 011800Z 06009KT 08/M12 A304 RMK A01 T00751118  RH  024%=      5-min Rain = 0
KMUS 011805Z 08010KT 08/M12 A304 RMK A01 T00801117  RH  023%=      5-min Rain = 0
KMUS 011810Z 07008KT 08/M11 A304 RMK A01 T00821113  RH  024%=      5-min Rain = 0
KMUS 011815Z 05009G14KT 08/M11 A3039 RMK A01 T00841113  RH  023%=      5-min Rain = 0
KMUS 011820Z 04012KT 09/M11 A3039 RMK A01 T00861113  RH  023%=      5-min Rain = 0
KMUS 011825Z 04007G12KT 08/M11 A3039 RMK A01 T00821114  RH  023%=      5-min Rain = 0
KMUS 011830Z 05010G15KT 08/M11 A3039 RMK A01 T00841113  RH  023%=      5-min Rain = 0
KMUS 011835Z 03011KT 09/M12 A3039 RMK A01 T00861115  RH  023%=      5-min Rain = 0
KMUS 011840Z 04009G14KT 09/M12 A3039 RMK A01 T00861115  RH  023%=      5-min Rain = 0
KMUS 011845Z 06011G17KT 08/M12 A3039 RMK A01 T00841115  RH  023%=      5-min Rain = 0
KMUS 011850Z 05009G15KT 08/M11 A3039 RMK A01 T00831113  RH  023%=      5-min Rain = 0
KMUS 011855Z 06005KT 08/M11 A3039 RMK A01 T00821111  RH  024%=      5-min Rain = 0
KMUS 011900Z 05009KT 09/M11 A3039 RMK A01 T00881111  RH  023%=      5-min Rain = 0
KMUS 011905Z 05010G15KT 09/M11 A3038 RMK A01 T00881111  RH  023%=      5-min Rain = 0
KMUS 011910Z 06007G12KT 09/M11 A3038 RMK A01 T00911111  RH  023%=      5-min Rain = 0
KMUS 011915Z 05007G13KT 09/M11 A3038 RMK A01 T00891112  RH  023%=      5-min Rain = 0
KMUS 011920Z 04009G17KT 09/M11 A3038 RMK A01 T00921114  RH  022%=      5-min Rain = 0
KMUS 011925Z 02011G17KT 10/M12 A3038 RMK A01 T00951116  RH  021%=      5-min Rain = 0
KMUS 011930Z 00014G21KT 09/M12 A3038 RMK A01 T00941117  RH  021%=      5-min Rain = 0
KMUS 011935Z 02010G15KT 09/M12 A3038 RMK A01 T00941115  RH  021%=      5-min Rain = 0
KMUS 011940Z 02007G18KT 09/M12 A3037 RMK A01 T00931117  RH  021%=      5-min Rain = 0
KMUS 011945Z 04011G16KT 10/M12 A3037 RMK A01 T00971115  RH  021%=      5-min Rain = 0
KMUS 011950Z 03008G13KT 10/M12 A3037 RMK A01 T00971115  RH  021%=      5-min Rain = 0
KMUS 011955Z 34008G13KT 10/M12 A3036 RMK A01 T00961117  RH  021%=      5-min Rain = 0
KMUS 012000Z 00010KT 10/M12 A3036 RMK A01 T00951117  RH  021%=      5-min Rain = 0
KMUS 012005Z 00010KT 10/M12 A3036 RMK A01 T00961118  RH  021%=      5-min Rain = 0
KMUS 012010Z 00009G14KT 10/M12 A3036 RMK A01 T00961118  RH  021%=      5-min Rain = 0
KMUS 012015Z 35010G15KT 10/M12 A3036 RMK A01 T00981121  RH  020%=      5-min Rain = 0
KMUS 012020Z 35008KT 10/M12 A3035 RMK A01 T00991122  RH  020%=      5-min Rain = 0
KMUS 012025Z 34006KT 10/M12 A3035 RMK A01 T00981122  RH  020%=      5-min Rain = 0
KMUS 012030Z 06008KT 10/M12 A3035 RMK A01 T00971122  RH  020%=      5-min Rain = 0
KMUS 012035Z 07006KT 09/M12 A3035 RMK A01 T00941123  RH  020%=      5-min Rain = 0
KMUS 012040Z 06007KT 10/M12 A3035 RMK A01 T00961123  RH  020%=      5-min Rain = 0
KMUS 012045Z 06004KT 10/M12 A3034 RMK A01 T00971123  RH  020%=      5-min Rain = 0
KMUS 012050Z 01006G12KT 10/M13 A3034 RMK A01 T01011125  RH  019%=      5-min Rain = 0
KMUS 012055Z 04006G12KT 10/M13 A3035 RMK A01 T01001130  RH  018%=      5-min Rain = 0
KMUS 012100Z 03006G14KT 10/M13 A3035 RMK A01 T01001128  RH  018%=      5-min Rain = 0
KMUS 012105Z 03004G9KT 10/M13 A3034 RMK A01 T00991126  RH  019%=      5-min Rain = 0
KMUS 012110Z 09002KT 10/M13 A3034 RMK A01 T00981127  RH  019%=      5-min Rain = 0
KMUS 012115Z 04003KT 10/M13 A3034 RMK A01 T01001126  RH  019%=      5-min Rain = 0
KMUS 012120Z 05006G11KT 10/M13 A3034 RMK A01 T00991125  RH  019%=      5-min Rain = 0
KMUS 012125Z 01007KT 10/M12 A3034 RMK A01 T01011124  RH  019%=      5-min Rain = 0
KMUS 012130Z 01005KT 10/M12 A3034 RMK A01 T01001124  RH  019%=      5-min Rain = 0
KMUS 012135Z 02005KT 10/M12 A3034 RMK A01 T01041123  RH  019%=      5-min Rain = 0
KMUS 012140Z 03005G13KT 11/M12 A3034 RMK A01 T01051122  RH  019%=      5-min Rain = 0
KMUS 012145Z 03009KT 10/M12 A3034 RMK A01 T01041122  RH  019%=      5-min Rain = 0
KMUS 012150Z 36009KT 11/M12 A3034 RMK A01 T01051121  RH  019%=      5-min Rain = 0
KMUS 012155Z 35008KT 10/M12 A3034 RMK A01 T01031121  RH  019%=      5-min Rain = 0
KMUS 012200Z 00005G11KT 10/M12 A3034 RMK A01 T01021121  RH  019%=      5-min Rain = 0
KMUS 012205Z 04008KT 10/M12 A3033 RMK A01 T01031122  RH  019%=      5-min Rain = 0
KMUS 012210Z 07008KT 10/M12 A3033 RMK A01 T01011122  RH  019%=      5-min Rain = 0
KMUS 012215Z 07007KT 10/M12 A3033 RMK A01 T01011122  RH  019%=      5-min Rain = 0
KMUS 012220Z 06005KT 10/M12 A3033 RMK A01 T00981122  RH  020%=      5-min Rain = 0
KMUS 012225Z 03006KT 10/M12 A3033 RMK A01 T01011121  RH  019%=      5-min Rain = 0
KMUS 012230Z 03007KT 10/M12 A3033 RMK A01 T01031123  RH  019%=      5-min Rain = 0
KMUS 012235Z 01003KT 10/M12 A3033 RMK A01 T01021123  RH  019%=      5-min Rain = 0
KMUS 012240Z 07002KT 10/M12 A3033 RMK A01 T01001124  RH  019%=      5-min Rain = 0
KMUS 012245Z 06004KT 10/M12 A3033 RMK A01 T01001123  RH  019%=      5-min Rain = 0
KMUS 012250Z 00005G12KT 10/M12 A3033 RMK A01 T01021124  RH  019%=      5-min Rain = 0
KMUS 012255Z 31005KT 10/M13 A3033 RMK A01 T01041127  RH  018%=      5-min Rain = 0
KMUS 012300Z 01005KT 10/M13 A3033 RMK A01 T01041128  RH  018%=      5-min Rain = 0
KMUS 012305Z 35006KT 10/M13 A3033 RMK A01 T01031126  RH  018%=      5-min Rain = 0
KMUS 012310Z 31007KT 10/M13 A3033 RMK A01 T01021125  RH  019%=      5-min Rain = 0
KMUS 012315Z 27005KT 10/M13 A3033 RMK A01 T01001125  RH  019%=      5-min Rain = 0
KMUS 012320Z 29005KT 10/M12 A3033 RMK A01 T01011124  RH  019%=      5-min Rain = 0
KMUS 012325Z 32005KT 10/M12 A3033 RMK A01 T01031124  RH  019%=      5-min Rain = 0
KMUS 012330Z 30003KT 10/M12 A3033 RMK A01 T01031124  RH  019%=      5-min Rain = 0
KMUS 012335Z 29002G9KT 11/M12 A3033 RMK A01 T01071123  RH  018%=      5-min Rain = 0
KMUS 012340Z 01008G16KT 10/M13 A3032 RMK A01 T01041125  RH  019%=      5-min Rain = 0
KMUS 012345Z 02005KT 10/M13 A3033 RMK A01 T01001125  RH  019%=      5-min Rain = 0
KMUS 012350Z 36007KT 10/M12 A3033 RMK A01 T00991124  RH  019%=      5-min Rain = 0
KMUS 012355Z 35004KT 10/M12 A3033 RMK A01 T00981124  RH  019%=      5-min Rain = 0
KMUS 020000Z 36003KT 10/M12 A3033 RMK A01 T00981123  RH  020%=      5-min Rain = 0
KMUS 020005Z 01002KT 10/M12 A3033 RMK A01 T00971124  RH  020%=      5-min Rain = 0
KMUS 020010Z 06000KT 10/M12 A3033 RMK A01 T00971123  RH  020%=      5-min Rain = 0
KMUS 020015Z 07005KT 10/M12 A3033 RMK A01 T00971122  RH  020%=      5-min Rain = 0
KMUS 020020Z 08005KT 09/M12 A3033 RMK A01 T00921122  RH  021%=      5-min Rain = 0
KMUS 020025Z 08005KT 09/M12 A3033 RMK A01 T00881122  RH  021%=      5-min Rain = 0
KMUS 020030Z 08003KT 09/M12 A3033 RMK A01 T00851121  RH  022%=      5-min Rain = 0
KMUS 020035Z 10002KT 08/M12 A3033 RMK A01 T00831122  RH  022%=      5-min Rain = 0
KMUS 020040Z 08002KT 08/M12 A3033 RMK A01 T00811122  RH  022%=      5-min Rain = 0
KMUS 020045Z 10006KT 08/M12 A3033 RMK A01 T00751124  RH  023%=      5-min Rain = 0
KMUS 020050Z 11008KT 07/M12 A3033 RMK A01 T00661124  RH  024%=      5-min Rain = 0
KMUS 020055Z 10006KT 06/M12 A3033 RMK A01 T00591124  RH  025%=      5-min Rain = 0
KMUS 020100Z 10005KT 05/M13 A3033 RMK A01 T00511125  RH  027%=      5-min Rain = 0
KMUS 020105Z 10005KT 05/M13 A3033 RMK A01 T00451125  RH  027%=      5-min Rain = 0
KMUS 020110Z 11005KT 04/M13 A3033 RMK A01 T00411125  RH  028%=      5-min Rain = 0
KMUS 020115Z 12005KT 04/M12 A3033 RMK A01 T00371124  RH  029%=      5-min Rain = 0
KMUS 020120Z 12006KT 03/M12 A3033 RMK A01 T00341124  RH  030%=      5-min Rain = 0
KMUS 020125Z 13007KT 03/M13 A3033 RMK A01 T00291125  RH  031%=      5-min Rain = 0
KMUS 020130Z 13007KT 03/M13 A3033 RMK A01 T00261128  RH  031%=      5-min Rain = 0
KMUS 020135Z 13006KT 02/M13 A3033 RMK A01 T00231130  RH  031%=      5-min Rain = 0
KMUS 020140Z 13005KT 02/M13 A3034 RMK A01 T00201130  RH  032%=      5-min Rain = 0
KMUS 020145Z 14004KT 02/M13 A3034 RMK A01 T00151131  RH  033%=      5-min Rain = 0
KMUS 020150Z 15004KT 01/M13 A3034 RMK A01 T00121127  RH  034%=      5-min Rain = 0
KMUS 020155Z 16006KT 01/M13 A3034 RMK A01 T00091128  RH  035%=      5-min Rain = 0
KMUS 020200Z 16007KT 01/M13 A3034 RMK A01 T00051126  RH  037%=      5-min Rain = 0
KMUS 020205Z 15007KT 01/M13 A3034 RMK A01 T00061126  RH  036%=      5-min Rain = 0
KMUS 020210Z 14007KT 01/M13 A3034 RMK A01 T00071127  RH  036%=      5-min Rain = 0
KMUS 020215Z 14006KT 00/M13 A3034 RMK A01 T00011126  RH  038%=      5-min Rain = 0
KMUS 020220Z 14006KT M00/M12 A3033 RMK A01 T10011124  RH  039%=      5-min Rain = 0
KMUS 020225Z 14006KT 00/13 A3034 RMK A01 T00-00-125  RH  038%=      5-min Rain = 0
KMUS 020230Z 15006KT 00/M13 A3034 RMK A01 T00031125  RH  037%=      5-min Rain = 0
KMUS 020235Z 16007KT 01/M13 A3034 RMK A01 T00051125  RH  037%=      5-min Rain = 0
KMUS 020240Z 18006KT 01/M13 A3034 RMK A01 T00051126  RH  037%=      5-min Rain = 0
KMUS 020245Z 17006KT 01/M12 A3034 RMK A01 T00061122  RH  038%=      5-min Rain = 0
KMUS 020250Z 17006KT 01/M12 A3034 RMK A01 T00051123  RH  037%=      5-min Rain = 0
KMUS 020255Z 16006KT 01/M13 A3034 RMK A01 T00081129  RH  035%=      5-min Rain = 0
KMUS 020300Z 16006KT 01/M13 A3034 RMK A01 T00071132  RH  034%=      5-min Rain = 0
KMUS 020305Z 17006KT 00/M13 A3034 RMK A01 T00031133  RH  035%=      5-min Rain = 0
KMUS 020310Z 16006KT M00/M13 A3034 RMK A01 T10031131  RH  037%=      5-min Rain = 0
KMUS 020315Z 16007KT M01/M13 A3034 RMK A01 T10091126  RH  040%=      5-min Rain = 0
KMUS 020320Z 18006KT M01/M13 A3034 RMK A01 T10101126  RH  041%=      5-min Rain = 0
KMUS 020325Z 19007KT M00/M12 A3034 RMK A01 T10031124  RH  039%=      5-min Rain = 0
KMUS 020330Z 18006KT M00/M12 A3034 RMK A01 T10041124  RH  040%=      5-min Rain = 0
KMUS 020335Z 18007KT M01/M12 A3034 RMK A01 T10061124  RH  040%=      5-min Rain = 0
KMUS 020340Z 18007KT M01/M12 A3034 RMK A01 T10081122  RH  041%=      5-min Rain = 0
KMUS 020345Z 18007KT M01/M12 A3033 RMK A01 T10111121  RH  043%=      5-min Rain = 0
KMUS 020350Z 19007KT M02/M12 A3033 RMK A01 T10151122  RH  044%=      5-min Rain = 0
KMUS 020355Z 18007KT M02/M12 A3033 RMK A01 T10181123  RH  044%=      5-min Rain = 0
KMUS 020400Z 18006KT M02/M12 A3033 RMK A01 T10191123  RH  045%=      5-min Rain = 0
KMUS 020405Z 18006KT M02/M12 A3033 RMK A01 T10181122  RH  045%=      5-min Rain = 0
KMUS 020410Z 18007KT M02/M12 A3033 RMK A01 T10171121  RH  045%=      5-min Rain = 0
KMUS 020415Z 18008KT M01/M12 A3033 RMK A01 T10141121  RH  044%=      5-min Rain = 0
KMUS 020420Z 17007KT M01/M12 A3033 RMK A01 T10121121  RH  043%=      5-min Rain = 0
KMUS 020425Z 18007KT M01/M12 A3034 RMK A01 T10121123  RH  043%=      5-min Rain = 0
KMUS 020430Z 18009KT M01/M12 A3034 RMK A01 T10111122  RH  042%=      5-min Rain = 0
KMUS 020435Z 18009KT M00/M12 A3034 RMK A01 T10031124  RH  039%=      5-min Rain = 0
KMUS 020440Z 18009KT 00/M12 A3034 RMK A01 T00021121  RH  039%=      5-min Rain = 0
KMUS 020445Z 18008KT 00/M12 A3034 RMK A01 T00021119  RH  040%=      5-min Rain = 0
KMUS 020450Z 19008KT 00/12 A3034 RMK A01 T00000-117  RH  041%=      5-min Rain = 0
KMUS 020455Z 19008KT M00/M12 A3033 RMK A01 T10021116  RH  042%=      5-min Rain = 0
KMUS 020500Z 18008KT M00/M11 A3033 RMK A01 T10041114  RH  043%=      5-min Rain = 0
KMUS 020505Z 19007KT M01/M11 A3033 RMK A01 T10071112  RH  045%=      5-min Rain = 0
KMUS 020510Z 20007KT M01/M11 A3033 RMK A01 T10091111  RH  046%=      5-min Rain = 0
KMUS 020515Z 19007KT M01/M11 A3033 RMK A01 T10101110  RH  046%=      5-min Rain = 0
KMUS 020520Z 19007KT M01/M11 A3033 RMK A01 T10141108  RH  048%=      5-min Rain = 0
KMUS 020525Z 19007KT M02/M11 A3033 RMK A01 T10161106  RH  050%=      5-min Rain = 0
KMUS 020530Z 19007KT M02/M10 A3033 RMK A01 T10181104  RH  052%=      5-min Rain = 0
KMUS 020535Z 19007KT M02/M10 A3033 RMK A01 T10191103  RH  053%=      5-min Rain = 0
KMUS 020540Z 19007KT M02/M10 A3033 RMK A01 T10211101  RH  054%=      5-min Rain = 0
KMUS 020545Z 18007KT M02/M10 A3033 RMK A01 T10231099  RH  056%=      5-min Rain = 0
KMUS 020550Z 18007KT M02/M10 A3033 RMK A01 T10231097  RH  057%=      5-min Rain = 0
KMUS 020555Z 19007KT M02/M09 A3033 RMK A01 T10231094  RH  058%=      5-min Rain = 0

Page generated in 0.0085 seconds.